sensor_id;sensor_type;location;lat;lon;timestamp;P1;durP1;ratioP1;P2;durP2;ratioP2
10410;SDS011;5251;52.112;8.606;2023-01-08T00:01:42;3.42;;;2.20;;
10410;SDS011;5251;52.112;8.606;2023-01-08T00:04:08;2.25;;;2.03;;
10410;SDS011;5251;52.112;8.606;2023-01-08T00:06:34;3.00;;;2.22;;
10410;SDS011;5251;52.112;8.606;2023-01-08T00:09:00;2.38;;;2.08;;
10410;SDS011;5251;52.112;8.606;2023-01-08T00:11:26;3.03;;;2.22;;
10410;SDS011;5251;52.112;8.606;2023-01-08T00:13:52;2.40;;;2.20;;
10410;SDS011;5251;52.112;8.606;2023-01-08T00:16:18;2.47;;;2.25;;
10410;SDS011;5251;52.112;8.606;2023-01-08T00:18:45;2.20;;;2.00;;
10410;SDS011;5251;52.112;8.606;2023-01-08T00:21:11;2.42;;;2.22;;
10410;SDS011;5251;52.112;8.606;2023-01-08T00:23:37;3.03;;;2.30;;
10410;SDS011;5251;52.112;8.606;2023-01-08T00:26:04;2.28;;;2.08;;
10410;SDS011;5251;52.112;8.606;2023-01-08T00:28:31;2.28;;;2.08;;
10410;SDS011;5251;52.112;8.606;2023-01-08T00:30:58;2.30;;;2.10;;
10410;SDS011;5251;52.112;8.606;2023-01-08T00:33:23;2.40;;;2.20;;
10410;SDS011;5251;52.112;8.606;2023-01-08T00:35:49;3.13;;;2.03;;
10410;SDS011;5251;52.112;8.606;2023-01-08T00:38:14;2.20;;;2.00;;
10410;SDS011;5251;52.112;8.606;2023-01-08T00:40:40;3.50;;;2.20;;
10410;SDS011;5251;52.112;8.606;2023-01-08T00:43:06;2.10;;;1.80;;
10410;SDS011;5251;52.112;8.606;2023-01-08T00:45:32;2.55;;;2.20;;
10410;SDS011;5251;52.112;8.606;2023-01-08T00:47:58;2.67;;;2.30;;
10410;SDS011;5251;52.112;8.606;2023-01-08T00:50:24;2.30;;;2.10;;
10410;SDS011;5251;52.112;8.606;2023-01-08T00:52:50;2.28;;;2.08;;
10410;SDS011;5251;52.112;8.606;2023-01-08T00:55:16;2.85;;;2.00;;
10410;SDS011;5251;52.112;8.606;2023-01-08T00:57:42;3.60;;;2.00;;
10410;SDS011;5251;52.112;8.606;2023-01-08T01:00:08;3.65;;;2.42;;
10410;SDS011;5251;52.112;8.606;2023-01-08T01:02:38;2.22;;;2.00;;
10410;SDS011;5251;52.112;8.606;2023-01-08T01:05:05;2.65;;;2.10;;
10410;SDS011;5251;52.112;8.606;2023-01-08T01:07:32;2.30;;;2.10;;
10410;SDS011;5251;52.112;8.606;2023-01-08T01:09:58;2.60;;;2.40;;
10410;SDS011;5251;52.112;8.606;2023-01-08T01:12:23;3.63;;;2.38;;
10410;SDS011;5251;52.112;8.606;2023-01-08T01:14:49;2.92;;;2.40;;
10410;SDS011;5251;52.112;8.606;2023-01-08T01:17:15;2.60;;;2.40;;
10410;SDS011;5251;52.112;8.606;2023-01-08T01:19:40;5.53;;;2.65;;
10410;SDS011;5251;52.112;8.606;2023-01-08T01:22:06;2.65;;;2.40;;
10410;SDS011;5251;52.112;8.606;2023-01-08T01:24:32;2.75;;;2.40;;
10410;SDS011;5251;52.112;8.606;2023-01-08T01:26:57;2.55;;;2.30;;
10410;SDS011;5251;52.112;8.606;2023-01-08T01:29:23;3.03;;;2.38;;
10410;SDS011;5251;52.112;8.606;2023-01-08T01:31:49;2.17;;;1.88;;
10410;SDS011;5251;52.112;8.606;2023-01-08T01:34:15;2.78;;;2.33;;
10410;SDS011;5251;52.112;8.606;2023-01-08T01:36:41;2.95;;;2.65;;
10410;SDS011;5251;52.112;8.606;2023-01-08T01:39:06;2.38;;;2.10;;
10410;SDS011;5251;52.112;8.606;2023-01-08T01:43:58;3.05;;;2.22;;
10410;SDS011;5251;52.112;8.606;2023-01-08T01:46:44;2.47;;;2.25;;
10410;SDS011;5251;52.112;8.606;2023-01-08T01:49:13;3.47;;;2.17;;
10410;SDS011;5251;52.112;8.606;2023-01-08T01:51:44;2.33;;;2.13;;
10410;SDS011;5251;52.112;8.606;2023-01-08T01:54:13;3.42;;;2.03;;
10410;SDS011;5251;52.112;8.606;2023-01-08T01:56:40;2.92;;;1.95;;
10410;SDS011;5251;52.112;8.606;2023-01-08T01:59:07;2.03;;;1.83;;
10410;SDS011;5251;52.112;8.606;2023-01-08T02:01:33;2.85;;;2.10;;
10410;SDS011;5251;52.112;8.606;2023-01-08T02:04:00;2.22;;;1.92;;
10410;SDS011;5251;52.112;8.606;2023-01-08T02:06:34;2.17;;;1.92;;
10410;SDS011;5251;52.112;8.606;2023-01-08T02:11:43;1.85;;;1.70;;
10410;SDS011;5251;52.112;8.606;2023-01-08T02:17:20;2.30;;;1.90;;
10410;SDS011;5251;52.112;8.606;2023-01-08T02:19:56;2.13;;;1.92;;
10410;SDS011;5251;52.112;8.606;2023-01-08T02:28:06;2.10;;;1.80;;
10410;SDS011;5251;52.112;8.606;2023-01-08T02:30:35;2.33;;;2.03;;
10410;SDS011;5251;52.112;8.606;2023-01-08T02:33:01;3.10;;;1.98;;
10410;SDS011;5251;52.112;8.606;2023-01-08T02:35:37;2.38;;;2.00;;
10410;SDS011;5251;52.112;8.606;2023-01-08T02:38:07;2.67;;;2.20;;
10410;SDS011;5251;52.112;8.606;2023-01-08T02:41:10;2.42;;;2.10;;
10410;SDS011;5251;52.112;8.606;2023-01-08T02:43:44;2.00;;;1.80;;
10410;SDS011;5251;52.112;8.606;2023-01-08T02:46:16;1.80;;;1.70;;
10410;SDS011;5251;52.112;8.606;2023-01-08T02:48:48;1.83;;;1.70;;
10410;SDS011;5251;52.112;8.606;2023-01-08T02:51:30;2.17;;;1.92;;
10410;SDS011;5251;52.112;8.606;2023-01-08T02:54:04;1.77;;;1.67;;
10410;SDS011;5251;52.112;8.606;2023-01-08T02:56:39;2.22;;;2.00;;
10410;SDS011;5251;52.112;8.606;2023-01-08T02:59:08;4.47;;;1.65;;
10410;SDS011;5251;52.112;8.606;2023-01-08T03:01:36;4.22;;;2.20;;
10410;SDS011;5251;52.112;8.606;2023-01-08T03:04:06;2.70;;;2.00;;
10410;SDS011;5251;52.112;8.606;2023-01-08T03:06:35;2.33;;;2.13;;
10410;SDS011;5251;52.112;8.606;2023-01-08T03:09:02;2.92;;;2.10;;
10410;SDS011;5251;52.112;8.606;2023-01-08T03:11:30;2.20;;;2.00;;
10410;SDS011;5251;52.112;8.606;2023-01-08T03:14:13;2.78;;;2.10;;
10410;SDS011;5251;52.112;8.606;2023-01-08T03:16:52;3.05;;;1.90;;
10410;SDS011;5251;52.112;8.606;2023-01-08T03:19:27;2.60;;;2.30;;
10410;SDS011;5251;52.112;8.606;2023-01-08T03:21:56;2.33;;;2.13;;
10410;SDS011;5251;52.112;8.606;2023-01-08T03:24:28;2.33;;;2.10;;
10410;SDS011;5251;52.112;8.606;2023-01-08T03:26:58;2.00;;;1.80;;
10410;SDS011;5251;52.112;8.606;2023-01-08T03:29:27;2.47;;;1.60;;
10410;SDS011;5251;52.112;8.606;2023-01-08T03:31:54;1.50;;;1.40;;
10410;SDS011;5251;52.112;8.606;2023-01-08T03:34:23;1.70;;;1.50;;
10410;SDS011;5251;52.112;8.606;2023-01-08T03:36:50;1.85;;;1.70;;
10410;SDS011;5251;52.112;8.606;2023-01-08T03:39:21;3.70;;;1.90;;
10410;SDS011;5251;52.112;8.606;2023-01-08T03:42:03;2.20;;;1.83;;
10410;SDS011;5251;52.112;8.606;2023-01-08T03:44:33;2.53;;;1.50;;
10410;SDS011;5251;52.112;8.606;2023-01-08T03:46:59;3.50;;;1.60;;
10410;SDS011;5251;52.112;8.606;2023-01-08T03:49:27;1.80;;;1.50;;
10410;SDS011;5251;52.112;8.606;2023-01-08T03:51:53;1.45;;;1.35;;
10410;SDS011;5251;52.112;8.606;2023-01-08T03:54:20;1.52;;;1.42;;
10410;SDS011;5251;52.112;8.606;2023-01-08T03:56:52;2.03;;;1.50;;
10410;SDS011;5251;52.112;8.606;2023-01-08T03:59:18;1.70;;;1.60;;
10410;SDS011;5251;52.112;8.606;2023-01-08T04:01:43;6.18;;;1.60;;
10410;SDS011;5251;52.112;8.606;2023-01-08T04:04:09;1.65;;;1.55;;
10410;SDS011;5251;52.112;8.606;2023-01-08T04:06:35;1.60;;;1.38;;
10410;SDS011;5251;52.112;8.606;2023-01-08T04:09:01;1.50;;;1.23;;
10410;SDS011;5251;52.112;8.606;2023-01-08T04:11:27;3.10;;;1.75;;
10410;SDS011;5251;52.112;8.606;2023-01-08T04:13:53;1.80;;;1.50;;
10410;SDS011;5251;52.112;8.606;2023-01-08T04:16:19;4.47;;;1.83;;
10410;SDS011;5251;52.112;8.606;2023-01-08T04:18:45;1.67;;;1.50;;
10410;SDS011;5251;52.112;8.606;2023-01-08T04:21:10;1.67;;;1.40;;
10410;SDS011;5251;52.112;8.606;2023-01-08T04:23:36;1.35;;;1.20;;
10410;SDS011;5251;52.112;8.606;2023-01-08T04:26:05;1.60;;;1.50;;
10410;SDS011;5251;52.112;8.606;2023-01-08T04:28:32;3.17;;;1.73;;
10410;SDS011;5251;52.112;8.606;2023-01-08T04:30:58;1.50;;;1.40;;
10410;SDS011;5251;52.112;8.606;2023-01-08T04:33:23;1.55;;;1.42;;
10410;SDS011;5251;52.112;8.606;2023-01-08T04:35:49;1.60;;;1.50;;
10410;SDS011;5251;52.112;8.606;2023-01-08T04:38:15;1.50;;;1.40;;
10410;SDS011;5251;52.112;8.606;2023-01-08T04:40:41;2.05;;;1.40;;
10410;SDS011;5251;52.112;8.606;2023-01-08T04:43:07;1.73;;;1.30;;
10410;SDS011;5251;52.112;8.606;2023-01-08T04:45:32;1.60;;;1.50;;
10410;SDS011;5251;52.112;8.606;2023-01-08T04:47:58;1.52;;;1.42;;
10410;SDS011;5251;52.112;8.606;2023-01-08T04:50:24;2.10;;;1.52;;
10410;SDS011;5251;52.112;8.606;2023-01-08T04:52:50;1.73;;;1.40;;
10410;SDS011;5251;52.112;8.606;2023-01-08T04:55:16;2.55;;;1.63;;
10410;SDS011;5251;52.112;8.606;2023-01-08T04:57:42;1.50;;;1.40;;
10410;SDS011;5251;52.112;8.606;2023-01-08T05:00:07;2.15;;;1.52;;
10410;SDS011;5251;52.112;8.606;2023-01-08T05:02:34;1.92;;;1.58;;
10410;SDS011;5251;52.112;8.606;2023-01-08T05:04:59;2.80;;;1.60;;
10410;SDS011;5251;52.112;8.606;2023-01-08T05:07:25;1.60;;;1.50;;
10410;SDS011;5251;52.112;8.606;2023-01-08T05:09:51;1.52;;;1.40;;
10410;SDS011;5251;52.112;8.606;2023-01-08T05:12:17;1.45;;;1.35;;
10410;SDS011;5251;52.112;8.606;2023-01-08T05:14:42;2.17;;;1.42;;
10410;SDS011;5251;52.112;8.606;2023-01-08T05:17:08;2.20;;;1.40;;
10410;SDS011;5251;52.112;8.606;2023-01-08T05:19:34;1.65;;;1.55;;
10410;SDS011;5251;52.112;8.606;2023-01-08T05:21:59;1.92;;;1.45;;
10410;SDS011;5251;52.112;8.606;2023-01-08T05:24:25;2.25;;;1.50;;
10410;SDS011;5251;52.112;8.606;2023-01-08T05:26:50;2.00;;;1.40;;
10410;SDS011;5251;52.112;8.606;2023-01-08T05:29:16;2.97;;;1.40;;
10410;SDS011;5251;52.112;8.606;2023-01-08T05:31:42;1.80;;;1.70;;
10410;SDS011;5251;52.112;8.606;2023-01-08T05:34:07;1.58;;;1.23;;
10410;SDS011;5251;52.112;8.606;2023-01-08T05:36:33;2.22;;;1.30;;
10410;SDS011;5251;52.112;8.606;2023-01-08T05:38:58;2.40;;;1.60;;
10410;SDS011;5251;52.112;8.606;2023-01-08T05:41:24;1.30;;;1.20;;
10410;SDS011;5251;52.112;8.606;2023-01-08T05:43:50;2.53;;;1.60;;
10410;SDS011;5251;52.112;8.606;2023-01-08T05:46:15;1.30;;;1.20;;
10410;SDS011;5251;52.112;8.606;2023-01-08T05:48:41;1.50;;;1.40;;
10410;SDS011;5251;52.112;8.606;2023-01-08T05:51:06;1.40;;;1.30;;
10410;SDS011;5251;52.112;8.606;2023-01-08T05:53:32;1.52;;;1.42;;
10410;SDS011;5251;52.112;8.606;2023-01-08T05:56:02;1.30;;;1.20;;
10410;SDS011;5251;52.112;8.606;2023-01-08T05:58:29;1.70;;;1.42;;
10410;SDS011;5251;52.112;8.606;2023-01-08T06:01:02;1.60;;;1.50;;
10410;SDS011;5251;52.112;8.606;2023-01-08T06:03:30;1.30;;;1.20;;
10410;SDS011;5251;52.112;8.606;2023-01-08T06:05:59;1.42;;;1.33;;
10410;SDS011;5251;52.112;8.606;2023-01-08T06:08:26;1.70;;;1.50;;
10410;SDS011;5251;52.112;8.606;2023-01-08T06:10:52;1.10;;;1.00;;
10410;SDS011;5251;52.112;8.606;2023-01-08T06:13:18;1.60;;;1.20;;
10410;SDS011;5251;52.112;8.606;2023-01-08T06:15:44;1.33;;;1.20;;
10410;SDS011;5251;52.112;8.606;2023-01-08T06:18:09;1.40;;;1.30;;
10410;SDS011;5251;52.112;8.606;2023-01-08T06:20:35;1.90;;;1.30;;
10410;SDS011;5251;52.112;8.606;2023-01-08T06:23:00;1.60;;;1.20;;
10410;SDS011;5251;52.112;8.606;2023-01-08T06:25:26;1.23;;;1.13;;
10410;SDS011;5251;52.112;8.606;2023-01-08T06:27:53;1.63;;;1.40;;
10410;SDS011;5251;52.112;8.606;2023-01-08T06:30:19;1.60;;;1.10;;
10410;SDS011;5251;52.112;8.606;2023-01-08T06:32:44;1.30;;;1.20;;
10410;SDS011;5251;52.112;8.606;2023-01-08T06:35:10;1.30;;;1.20;;
10410;SDS011;5251;52.112;8.606;2023-01-08T06:37:35;1.35;;;1.20;;
10410;SDS011;5251;52.112;8.606;2023-01-08T06:40:01;1.30;;;1.20;;
10410;SDS011;5251;52.112;8.606;2023-01-08T06:42:26;1.30;;;1.10;;
10410;SDS011;5251;52.112;8.606;2023-01-08T06:44:52;1.88;;;1.13;;
10410;SDS011;5251;52.112;8.606;2023-01-08T06:47:18;1.17;;;1.10;;
10410;SDS011;5251;52.112;8.606;2023-01-08T06:49:43;2.13;;;1.00;;
10410;SDS011;5251;52.112;8.606;2023-01-08T06:52:09;1.50;;;1.10;;
10410;SDS011;5251;52.112;8.606;2023-01-08T06:54:35;0.98;;;0.90;;
10410;SDS011;5251;52.112;8.606;2023-01-08T06:57:00;1.35;;;0.98;;
10410;SDS011;5251;52.112;8.606;2023-01-08T06:59:26;1.85;;;1.15;;
10410;SDS011;5251;52.112;8.606;2023-01-08T07:01:52;1.20;;;1.10;;
10410;SDS011;5251;52.112;8.606;2023-01-08T07:04:18;1.20;;;1.10;;
10410;SDS011;5251;52.112;8.606;2023-01-08T07:06:43;0.93;;;0.90;;
10410;SDS011;5251;52.112;8.606;2023-01-08T07:09:10;1.00;;;0.93;;
10410;SDS011;5251;52.112;8.606;2023-01-08T07:11:37;1.40;;;1.10;;
10410;SDS011;5251;52.112;8.606;2023-01-08T07:14:03;1.20;;;1.10;;
10410;SDS011;5251;52.112;8.606;2023-01-08T07:16:28;1.10;;;1.00;;
10410;SDS011;5251;52.112;8.606;2023-01-08T07:18:54;1.10;;;1.00;;
10410;SDS011;5251;52.112;8.606;2023-01-08T07:21:19;3.05;;;1.30;;
10410;SDS011;5251;52.112;8.606;2023-01-08T07:23:49;1.10;;;1.00;;
10410;SDS011;5251;52.112;8.606;2023-01-08T07:26:15;1.20;;;1.10;;
10410;SDS011;5251;52.112;8.606;2023-01-08T07:28:41;1.20;;;1.10;;
10410;SDS011;5251;52.112;8.606;2023-01-08T07:31:07;2.08;;;1.20;;
10410;SDS011;5251;52.112;8.606;2023-01-08T07:33:33;1.40;;;1.30;;
10410;SDS011;5251;52.112;8.606;2023-01-08T07:35:59;2.10;;;1.27;;
10410;SDS011;5251;52.112;8.606;2023-01-08T07:38:25;1.20;;;1.10;;
10410;SDS011;5251;52.112;8.606;2023-01-08T07:40:51;1.30;;;1.20;;
10410;SDS011;5251;52.112;8.606;2023-01-08T07:43:17;1.05;;;0.95;;
10410;SDS011;5251;52.112;8.606;2023-01-08T07:45:43;2.45;;;1.67;;
10410;SDS011;5251;52.112;8.606;2023-01-08T07:48:08;1.30;;;1.20;;
10410;SDS011;5251;52.112;8.606;2023-01-08T07:50:41;1.40;;;1.30;;
10410;SDS011;5251;52.112;8.606;2023-01-08T07:53:08;1.20;;;1.10;;
10410;SDS011;5251;52.112;8.606;2023-01-08T07:55:34;1.30;;;1.20;;
10410;SDS011;5251;52.112;8.606;2023-01-08T07:57:59;2.60;;;1.70;;
10410;SDS011;5251;52.112;8.606;2023-01-08T08:00:25;1.80;;;1.20;;
10410;SDS011;5251;52.112;8.606;2023-01-08T08:02:51;2.53;;;1.70;;
10410;SDS011;5251;52.112;8.606;2023-01-08T08:05:17;2.83;;;1.50;;
10410;SDS011;5251;52.112;8.606;2023-01-08T08:07:42;1.10;;;1.00;;
10410;SDS011;5251;52.112;8.606;2023-01-08T08:10:08;1.05;;;1.00;;
10410;SDS011;5251;52.112;8.606;2023-01-08T08:12:36;0.90;;;0.90;;
10410;SDS011;5251;52.112;8.606;2023-01-08T08:15:01;0.88;;;0.88;;
10410;SDS011;5251;52.112;8.606;2023-01-08T08:17:27;1.10;;;1.00;;
10410;SDS011;5251;52.112;8.606;2023-01-08T08:19:53;1.00;;;1.00;;
10410;SDS011;5251;52.112;8.606;2023-01-08T08:22:18;1.00;;;1.00;;
10410;SDS011;5251;52.112;8.606;2023-01-08T08:24:44;1.95;;;1.00;;
10410;SDS011;5251;52.112;8.606;2023-01-08T08:27:09;1.33;;;1.10;;
10410;SDS011;5251;52.112;8.606;2023-01-08T08:29:35;0.98;;;0.90;;
10410;SDS011;5251;52.112;8.606;2023-01-08T08:32:00;0.80;;;0.80;;
10410;SDS011;5251;52.112;8.606;2023-01-08T08:34:26;1.10;;;1.00;;
10410;SDS011;5251;52.112;8.606;2023-01-08T08:36:51;2.65;;;1.08;;
10410;SDS011;5251;52.112;8.606;2023-01-08T08:39:17;0.90;;;0.77;;
10410;SDS011;5251;52.112;8.606;2023-01-08T08:41:43;1.10;;;1.00;;
10410;SDS011;5251;52.112;8.606;2023-01-08T08:44:08;1.00;;;0.98;;
10410;SDS011;5251;52.112;8.606;2023-01-08T08:46:34;1.00;;;0.90;;
10410;SDS011;5251;52.112;8.606;2023-01-08T08:48:59;0.82;;;0.80;;
10410;SDS011;5251;52.112;8.606;2023-01-08T08:51:25;0.90;;;0.90;;
10410;SDS011;5251;52.112;8.606;2023-01-08T08:53:51;0.63;;;0.63;;
10410;SDS011;5251;52.112;8.606;2023-01-08T08:56:17;1.02;;;0.80;;
10410;SDS011;5251;52.112;8.606;2023-01-08T08:58:42;1.10;;;1.00;;
10410;SDS011;5251;52.112;8.606;2023-01-08T09:01:09;1.10;;;0.80;;
10410;SDS011;5251;52.112;8.606;2023-01-08T09:03:36;0.93;;;0.90;;
10410;SDS011;5251;52.112;8.606;2023-01-08T09:06:02;1.90;;;1.00;;
10410;SDS011;5251;52.112;8.606;2023-01-08T09:08:27;0.90;;;0.80;;
10410;SDS011;5251;52.112;8.606;2023-01-08T09:10:53;1.20;;;0.98;;
10410;SDS011;5251;52.112;8.606;2023-01-08T09:13:19;1.05;;;0.70;;
10410;SDS011;5251;52.112;8.606;2023-01-08T09:15:44;0.85;;;0.80;;
10410;SDS011;5251;52.112;8.606;2023-01-08T09:18:10;0.73;;;0.60;;
10410;SDS011;5251;52.112;8.606;2023-01-08T09:20:36;0.88;;;0.80;;
10410;SDS011;5251;52.112;8.606;2023-01-08T09:23:01;0.90;;;0.60;;
10410;SDS011;5251;52.112;8.606;2023-01-08T09:25:27;1.17;;;0.55;;
10410;SDS011;5251;52.112;8.606;2023-01-08T09:28:00;1.48;;;0.75;;
10410;SDS011;5251;52.112;8.606;2023-01-08T09:30:27;0.60;;;0.60;;
10410;SDS011;5251;52.112;8.606;2023-01-08T09:33:00;1.40;;;0.70;;
10410;SDS011;5251;52.112;8.606;2023-01-08T09:35:27;0.88;;;0.75;;
10410;SDS011;5251;52.112;8.606;2023-01-08T09:37:53;1.13;;;0.63;;
10410;SDS011;5251;52.112;8.606;2023-01-08T09:40:20;1.05;;;0.70;;
10410;SDS011;5251;52.112;8.606;2023-01-08T09:42:50;0.95;;;0.80;;
10410;SDS011;5251;52.112;8.606;2023-01-08T09:45:26;1.40;;;0.68;;
10410;SDS011;5251;52.112;8.606;2023-01-08T09:47:55;1.88;;;0.85;;
10410;SDS011;5251;52.112;8.606;2023-01-08T09:50:25;0.95;;;0.90;;
10410;SDS011;5251;52.112;8.606;2023-01-08T09:52:53;1.00;;;0.90;;
10410;SDS011;5251;52.112;8.606;2023-01-08T09:55:19;1.05;;;0.90;;
10410;SDS011;5251;52.112;8.606;2023-01-08T09:57:45;1.05;;;0.95;;
10410;SDS011;5251;52.112;8.606;2023-01-08T10:00:23;2.08;;;0.93;;
10410;SDS011;5251;52.112;8.606;2023-01-08T10:02:52;1.38;;;0.93;;
10410;SDS011;5251;52.112;8.606;2023-01-08T10:05:19;0.80;;;0.80;;
10410;SDS011;5251;52.112;8.606;2023-01-08T10:07:45;1.15;;;1.02;;
10410;SDS011;5251;52.112;8.606;2023-01-08T10:10:29;1.73;;;0.90;;
10410;SDS011;5251;52.112;8.606;2023-01-08T10:12:56;1.73;;;1.23;;
10410;SDS011;5251;52.112;8.606;2023-01-08T10:15:23;1.65;;;1.10;;
10410;SDS011;5251;52.112;8.606;2023-01-08T10:20:24;2.55;;;1.10;;
10410;SDS011;5251;52.112;8.606;2023-01-08T10:22:50;1.13;;;1.00;;
10410;SDS011;5251;52.112;8.606;2023-01-08T10:25:24;1.38;;;1.00;;
10410;SDS011;5251;52.112;8.606;2023-01-08T10:28:01;1.45;;;1.00;;
10410;SDS011;5251;52.112;8.606;2023-01-08T10:30:34;1.23;;;1.10;;
10410;SDS011;5251;52.112;8.606;2023-01-08T10:33:06;0.85;;;0.80;;
10410;SDS011;5251;52.112;8.606;2023-01-08T10:35:37;1.30;;;1.00;;
10410;SDS011;5251;52.112;8.606;2023-01-08T10:38:04;1.02;;;0.90;;
10410;SDS011;5251;52.112;8.606;2023-01-08T10:40:39;1.65;;;1.10;;
10410;SDS011;5251;52.112;8.606;2023-01-08T10:45:38;1.27;;;1.10;;
10410;SDS011;5251;52.112;8.606;2023-01-08T10:48:05;3.55;;;0.90;;
10410;SDS011;5251;52.112;8.606;2023-01-08T10:50:39;2.15;;;1.20;;
10410;SDS011;5251;52.112;8.606;2023-01-08T10:53:05;2.97;;;1.15;;
10410;SDS011;5251;52.112;8.606;2023-01-08T10:55:56;3.80;;;1.10;;
10410;SDS011;5251;52.112;8.606;2023-01-08T10:58:23;2.42;;;1.08;;
10410;SDS011;5251;52.112;8.606;2023-01-08T11:00:49;2.72;;;1.17;;
10410;SDS011;5251;52.112;8.606;2023-01-08T11:03:32;2.25;;;1.15;;
10410;SDS011;5251;52.112;8.606;2023-01-08T11:05:58;2.03;;;1.30;;
10410;SDS011;5251;52.112;8.606;2023-01-08T11:08:24;2.03;;;1.00;;
10410;SDS011;5251;52.112;8.606;2023-01-08T11:10:53;3.65;;;1.08;;
10410;SDS011;5251;52.112;8.606;2023-01-08T11:13:20;3.10;;;1.00;;
10410;SDS011;5251;52.112;8.606;2023-01-08T11:15:46;3.05;;;1.20;;
10410;SDS011;5251;52.112;8.606;2023-01-08T11:18:30;2.28;;;1.20;;
10410;SDS011;5251;52.112;8.606;2023-01-08T11:21:09;5.18;;;1.45;;
10410;SDS011;5251;52.112;8.606;2023-01-08T11:26:43;3.38;;;1.30;;
10410;SDS011;5251;52.112;8.606;2023-01-08T11:29:16;4.57;;;1.85;;
10410;SDS011;5251;52.112;8.606;2023-01-08T11:31:49;3.05;;;1.20;;
10410;SDS011;5251;52.112;8.606;2023-01-08T11:34:27;2.53;;;1.33;;
10410;SDS011;5251;52.112;8.606;2023-01-08T11:37:07;4.13;;;1.15;;
10410;SDS011;5251;52.112;8.606;2023-01-08T11:39:35;3.92;;;1.50;;
10410;SDS011;5251;52.112;8.606;2023-01-08T11:50:52;3.35;;;1.55;;
10410;SDS011;5251;52.112;8.606;2023-01-08T12:04:50;3.72;;;1.10;;
10410;SDS011;5251;52.112;8.606;2023-01-08T12:10:22;3.25;;;1.20;;
10410;SDS011;5251;52.112;8.606;2023-01-08T12:18:31;2.70;;;1.10;;
10410;SDS011;5251;52.112;8.606;2023-01-08T12:21:12;2.88;;;1.13;;
10410;SDS011;5251;52.112;8.606;2023-01-08T12:26:22;2.88;;;1.15;;
10410;SDS011;5251;52.112;8.606;2023-01-08T12:29:31;5.07;;;1.27;;
10410;SDS011;5251;52.112;8.606;2023-01-08T12:37:25;4.63;;;1.48;;
10410;SDS011;5251;52.112;8.606;2023-01-08T12:40:04;3.80;;;1.23;;
10410;SDS011;5251;52.112;8.606;2023-01-08T12:42:43;3.40;;;1.20;;
10410;SDS011;5251;52.112;8.606;2023-01-08T12:45:29;3.38;;;1.40;;
10410;SDS011;5251;52.112;8.606;2023-01-08T12:48:13;3.67;;;1.10;;
10410;SDS011;5251;52.112;8.606;2023-01-08T13:01:22;4.13;;;1.60;;
10410;SDS011;5251;52.112;8.606;2023-01-08T13:03:53;2.63;;;1.02;;
10410;SDS011;5251;52.112;8.606;2023-01-08T13:06:19;3.22;;;1.20;;
10410;SDS011;5251;52.112;8.606;2023-01-08T13:08:50;3.65;;;1.52;;
10410;SDS011;5251;52.112;8.606;2023-01-08T13:11:24;2.65;;;1.30;;
10410;SDS011;5251;52.112;8.606;2023-01-08T13:13:59;2.08;;;1.13;;
10410;SDS011;5251;52.112;8.606;2023-01-08T13:16:38;2.78;;;1.20;;
10410;SDS011;5251;52.112;8.606;2023-01-08T13:19:06;3.22;;;1.20;;
10410;SDS011;5251;52.112;8.606;2023-01-08T13:21:58;1.85;;;1.13;;
10410;SDS011;5251;52.112;8.606;2023-01-08T13:24:35;3.83;;;1.25;;
10410;SDS011;5251;52.112;8.606;2023-01-08T13:37:45;2.90;;;0.90;;
10410;SDS011;5251;52.112;8.606;2023-01-08T13:40:55;2.25;;;1.33;;
10410;SDS011;5251;52.112;8.606;2023-01-08T13:43:13;3.60;;;1.48;;
10410;SDS011;5251;52.112;8.606;2023-01-08T13:45:53;2.58;;;1.17;;
10410;SDS011;5251;52.112;8.606;2023-01-08T13:48:37;3.05;;;1.20;;
10410;SDS011;5251;52.112;8.606;2023-01-08T13:56:41;0.90;;;0.80;;
10410;SDS011;5251;52.112;8.606;2023-01-08T13:59:50;2.40;;;1.13;;
10410;SDS011;5251;52.112;8.606;2023-01-08T14:01:59;1.52;;;1.00;;
10410;SDS011;5251;52.112;8.606;2023-01-08T14:04:25;2.80;;;1.02;;
10410;SDS011;5251;52.112;8.606;2023-01-08T14:06:51;1.15;;;0.70;;
10410;SDS011;5251;52.112;8.606;2023-01-08T14:09:21;2.15;;;0.80;;
10410;SDS011;5251;52.112;8.606;2023-01-08T14:11:49;1.23;;;0.80;;
10410;SDS011;5251;52.112;8.606;2023-01-08T14:14:19;2.75;;;0.80;;
10410;SDS011;5251;52.112;8.606;2023-01-08T14:16:47;1.15;;;0.90;;
10410;SDS011;5251;52.112;8.606;2023-01-08T14:19:15;2.25;;;1.70;;
10410;SDS011;5251;52.112;8.606;2023-01-08T14:21:46;1.13;;;1.02;;
10410;SDS011;5251;52.112;8.606;2023-01-08T14:24:16;1.10;;;0.82;;
10410;SDS011;5251;52.112;8.606;2023-01-08T14:26:49;0.88;;;0.70;;
10410;SDS011;5251;52.112;8.606;2023-01-08T14:29:18;3.20;;;1.00;;
10410;SDS011;5251;52.112;8.606;2023-01-08T14:31:53;1.02;;;0.90;;
10410;SDS011;5251;52.112;8.606;2023-01-08T14:34:20;1.20;;;0.73;;
10410;SDS011;5251;52.112;8.606;2023-01-08T14:36:49;0.80;;;0.80;;
10410;SDS011;5251;52.112;8.606;2023-01-08T14:39:24;1.35;;;0.90;;
10410;SDS011;5251;52.112;8.606;2023-01-08T14:42:00;1.27;;;1.02;;
10410;SDS011;5251;52.112;8.606;2023-01-08T14:45:22;1.23;;;0.93;;
10410;SDS011;5251;52.112;8.606;2023-01-08T14:48:00;0.85;;;0.85;;
10410;SDS011;5251;52.112;8.606;2023-01-08T14:50:32;0.90;;;0.77;;
10410;SDS011;5251;52.112;8.606;2023-01-08T14:55:33;1.50;;;0.70;;
10410;SDS011;5251;52.112;8.606;2023-01-08T14:58:04;0.93;;;0.60;;
10410;SDS011;5251;52.112;8.606;2023-01-08T15:00:39;0.98;;;0.82;;
10410;SDS011;5251;52.112;8.606;2023-01-08T15:03:04;0.70;;;0.70;;
10410;SDS011;5251;52.112;8.606;2023-01-08T15:05:30;0.43;;;0.43;;
10410;SDS011;5251;52.112;8.606;2023-01-08T15:07:58;0.68;;;0.60;;
10410;SDS011;5251;52.112;8.606;2023-01-08T15:10:46;0.70;;;0.70;;
10410;SDS011;5251;52.112;8.606;2023-01-08T15:13:30;0.73;;;0.55;;
10410;SDS011;5251;52.112;8.606;2023-01-08T15:16:05;0.70;;;0.57;;
10410;SDS011;5251;52.112;8.606;2023-01-08T15:18:41;0.68;;;0.68;;
10410;SDS011;5251;52.112;8.606;2023-01-08T15:21:09;0.50;;;0.50;;
10410;SDS011;5251;52.112;8.606;2023-01-08T15:23:40;0.50;;;0.50;;
10410;SDS011;5251;52.112;8.606;2023-01-08T15:26:09;1.15;;;1.05;;
10410;SDS011;5251;52.112;8.606;2023-01-08T15:28:37;1.20;;;0.80;;
10410;SDS011;5251;52.112;8.606;2023-01-08T15:31:09;1.58;;;0.63;;
10410;SDS011;5251;52.112;8.606;2023-01-08T15:33:35;1.02;;;0.60;;
10410;SDS011;5251;52.112;8.606;2023-01-08T15:36:00;5.72;;;3.35;;
10410;SDS011;5251;52.112;8.606;2023-01-08T15:38:26;3.67;;;1.48;;
10410;SDS011;5251;52.112;8.606;2023-01-08T15:40:52;1.25;;;0.88;;
10410;SDS011;5251;52.112;8.606;2023-01-08T15:43:18;0.82;;;0.82;;
10410;SDS011;5251;52.112;8.606;2023-01-08T15:45:46;0.68;;;0.68;;
10410;SDS011;5251;52.112;8.606;2023-01-08T15:48:14;2.13;;;0.60;;
10410;SDS011;5251;52.112;8.606;2023-01-08T15:50:40;0.98;;;0.60;;
10410;SDS011;5251;52.112;8.606;2023-01-08T15:53:12;2.10;;;0.80;;
10410;SDS011;5251;52.112;8.606;2023-01-08T15:55:46;1.00;;;0.73;;
10410;SDS011;5251;52.112;8.606;2023-01-08T15:58:12;0.80;;;0.80;;
10410;SDS011;5251;52.112;8.606;2023-01-08T16:00:39;0.98;;;0.70;;
10410;SDS011;5251;52.112;8.606;2023-01-08T16:03:06;1.33;;;0.70;;
10410;SDS011;5251;52.112;8.606;2023-01-08T16:05:33;0.65;;;0.65;;
10410;SDS011;5251;52.112;8.606;2023-01-08T16:07:59;1.17;;;0.70;;
10410;SDS011;5251;52.112;8.606;2023-01-08T16:10:25;3.00;;;1.05;;
10410;SDS011;5251;52.112;8.606;2023-01-08T16:12:52;1.20;;;1.10;;
10410;SDS011;5251;52.112;8.606;2023-01-08T16:15:18;1.20;;;1.10;;
10410;SDS011;5251;52.112;8.606;2023-01-08T16:17:44;1.30;;;1.10;;
10410;SDS011;5251;52.112;8.606;2023-01-08T16:20:10;1.30;;;1.10;;
10410;SDS011;5251;52.112;8.606;2023-01-08T16:22:36;0.88;;;0.80;;
10410;SDS011;5251;52.112;8.606;2023-01-08T16:25:02;1.73;;;1.05;;
10410;SDS011;5251;52.112;8.606;2023-01-08T16:27:31;0.90;;;0.90;;
10410;SDS011;5251;52.112;8.606;2023-01-08T16:29:57;1.13;;;1.02;;
10410;SDS011;5251;52.112;8.606;2023-01-08T16:32:23;1.13;;;1.00;;
10410;SDS011;5251;52.112;8.606;2023-01-08T16:34:49;1.55;;;1.05;;
10410;SDS011;5251;52.112;8.606;2023-01-08T16:37:14;1.55;;;0.90;;
10410;SDS011;5251;52.112;8.606;2023-01-08T16:39:40;1.20;;;1.10;;